sensor_id;sensor_type;location;lat;lon;timestamp;P1;durP1;ratioP1;P2;durP2;ratioP2
38238;SDS011;24035;48.900;9.188;2023-03-24T00:01:01;2.75;;;1.10;;
38238;SDS011;24035;48.900;9.188;2023-03-24T00:03:28;3.85;;;1.23;;
38238;SDS011;24035;48.900;9.188;2023-03-24T00:05:58;3.17;;;1.02;;
38238;SDS011;24035;48.900;9.188;2023-03-24T00:08:28;2.80;;;0.98;;
38238;SDS011;24035;48.900;9.188;2023-03-24T00:11:06;3.85;;;0.90;;
38238;SDS011;24035;48.900;9.188;2023-03-24T00:13:33;4.57;;;1.40;;
38238;SDS011;24035;48.900;9.188;2023-03-24T00:16:03;3.00;;;0.93;;
38238;SDS011;24035;48.900;9.188;2023-03-24T00:18:30;3.45;;;1.00;;
38238;SDS011;24035;48.900;9.188;2023-03-24T00:20:56;3.53;;;1.10;;
38238;SDS011;24035;48.900;9.188;2023-03-24T00:23:27;3.58;;;1.25;;
38238;SDS011;24035;48.900;9.188;2023-03-24T00:26:07;3.08;;;0.93;;
38238;SDS011;24035;48.900;9.188;2023-03-24T00:28:36;2.05;;;0.90;;
38238;SDS011;24035;48.900;9.188;2023-03-24T00:31:04;3.03;;;1.00;;
38238;SDS011;24035;48.900;9.188;2023-03-24T00:33:31;3.47;;;1.25;;
38238;SDS011;24035;48.900;9.188;2023-03-24T00:35:59;2.63;;;0.90;;
38238;SDS011;24035;48.900;9.188;2023-03-24T00:38:25;4.10;;;1.30;;
38238;SDS011;24035;48.900;9.188;2023-03-24T00:40:52;3.25;;;1.00;;
38238;SDS011;24035;48.900;9.188;2023-03-24T00:43:18;3.25;;;1.05;;
38238;SDS011;24035;48.900;9.188;2023-03-24T00:45:44;2.78;;;1.08;;
38238;SDS011;24035;48.900;9.188;2023-03-24T00:48:16;5.38;;;1.10;;
38238;SDS011;24035;48.900;9.188;2023-03-24T00:50:44;3.60;;;1.38;;
38238;SDS011;24035;48.900;9.188;2023-03-24T00:53:12;2.45;;;0.98;;
38238;SDS011;24035;48.900;9.188;2023-03-24T00:55:40;2.78;;;1.00;;
38238;SDS011;24035;48.900;9.188;2023-03-24T00:58:06;2.92;;;0.80;;
38238;SDS011;24035;48.900;9.188;2023-03-24T01:00:32;2.70;;;1.00;;
38238;SDS011;24035;48.900;9.188;2023-03-24T01:02:57;2.13;;;0.85;;
38238;SDS011;24035;48.900;9.188;2023-03-24T01:05:27;2.85;;;0.93;;
38238;SDS011;24035;48.900;9.188;2023-03-24T01:07:58;2.70;;;1.08;;
38238;SDS011;24035;48.900;9.188;2023-03-24T01:10:28;2.67;;;1.08;;
38238;SDS011;24035;48.900;9.188;2023-03-24T01:12:56;1.70;;;0.75;;
38238;SDS011;24035;48.900;9.188;2023-03-24T01:15:25;3.38;;;1.10;;
38238;SDS011;24035;48.900;9.188;2023-03-24T01:17:53;3.58;;;0.80;;
38238;SDS011;24035;48.900;9.188;2023-03-24T01:20:20;2.58;;;0.98;;
38238;SDS011;24035;48.900;9.188;2023-03-24T01:22:48;2.40;;;0.80;;
38238;SDS011;24035;48.900;9.188;2023-03-24T01:25:15;2.63;;;0.95;;
38238;SDS011;24035;48.900;9.188;2023-03-24T01:27:46;2.50;;;0.80;;
38238;SDS011;24035;48.900;9.188;2023-03-24T01:30:13;3.00;;;0.75;;
38238;SDS011;24035;48.900;9.188;2023-03-24T01:32:41;2.35;;;0.80;;
38238;SDS011;24035;48.900;9.188;2023-03-24T01:35:08;2.38;;;0.90;;
38238;SDS011;24035;48.900;9.188;2023-03-24T01:37:35;2.10;;;0.70;;
38238;SDS011;24035;48.900;9.188;2023-03-24T01:40:02;2.35;;;0.88;;
38238;SDS011;24035;48.900;9.188;2023-03-24T01:42:32;2.80;;;1.10;;
38238;SDS011;24035;48.900;9.188;2023-03-24T01:44:59;1.95;;;0.80;;
38238;SDS011;24035;48.900;9.188;2023-03-24T01:47:26;8.70;;;1.10;;
38238;SDS011;24035;48.900;9.188;2023-03-24T01:49:53;2.55;;;0.85;;
38238;SDS011;24035;48.900;9.188;2023-03-24T01:52:26;2.67;;;0.90;;
38238;SDS011;24035;48.900;9.188;2023-03-24T01:54:56;2.13;;;0.75;;
38238;SDS011;24035;48.900;9.188;2023-03-24T01:57:26;2.13;;;0.75;;
38238;SDS011;24035;48.900;9.188;2023-03-24T01:59:56;2.50;;;0.85;;
38238;SDS011;24035;48.900;9.188;2023-03-24T02:02:26;3.35;;;1.35;;
38238;SDS011;24035;48.900;9.188;2023-03-24T02:04:53;4.47;;;1.00;;
38238;SDS011;24035;48.900;9.188;2023-03-24T02:07:35;2.75;;;0.88;;
38238;SDS011;24035;48.900;9.188;2023-03-24T02:10:23;3.13;;;0.80;;
38238;SDS011;24035;48.900;9.188;2023-03-24T02:12:49;3.70;;;0.80;;
38238;SDS011;24035;48.900;9.188;2023-03-24T02:15:16;2.13;;;0.90;;
38238;SDS011;24035;48.900;9.188;2023-03-24T02:29:24;2.67;;;0.98;;
38238;SDS011;24035;48.900;9.188;2023-03-24T02:46:06;2.75;;;0.80;;
38238;SDS011;24035;48.900;9.188;2023-03-24T02:57:23;2.67;;;0.88;;
38238;SDS011;24035;48.900;9.188;2023-03-24T03:02:49;2.53;;;0.88;;
38238;SDS011;24035;48.900;9.188;2023-03-24T03:05:36;1.25;;;0.60;;
38238;SDS011;24035;48.900;9.188;2023-03-24T03:08:08;2.17;;;0.73;;
38238;SDS011;24035;48.900;9.188;2023-03-24T03:10:38;1.85;;;0.60;;
38238;SDS011;24035;48.900;9.188;2023-03-24T03:14:09;1.10;;;0.32;;
38238;SDS011;24035;48.900;9.188;2023-03-24T03:16:09;2.15;;;0.55;;
38238;SDS011;24035;48.900;9.188;2023-03-24T03:18:50;3.08;;;0.88;;
38238;SDS011;24035;48.900;9.188;2023-03-24T03:21:22;3.03;;;0.70;;
38238;SDS011;24035;48.900;9.188;2023-03-24T03:23:51;4.60;;;0.70;;
38238;SDS011;24035;48.900;9.188;2023-03-24T03:26:21;2.13;;;0.70;;
38238;SDS011;24035;48.900;9.188;2023-03-24T03:28:53;3.08;;;1.27;;
38238;SDS011;24035;48.900;9.188;2023-03-24T03:31:26;2.50;;;0.80;;
38238;SDS011;24035;48.900;9.188;2023-03-24T03:36:33;1.27;;;0.60;;
38238;SDS011;24035;48.900;9.188;2023-03-24T03:39:20;2.30;;;1.00;;
38238;SDS011;24035;48.900;9.188;2023-03-24T03:41:51;1.42;;;0.52;;
38238;SDS011;24035;48.900;9.188;2023-03-24T03:44:17;2.65;;;0.65;;
38238;SDS011;24035;48.900;9.188;2023-03-24T03:46:43;1.92;;;0.65;;
38238;SDS011;24035;48.900;9.188;2023-03-24T03:49:09;1.45;;;0.55;;
38238;SDS011;24035;48.900;9.188;2023-03-24T03:51:35;2.03;;;0.80;;
38238;SDS011;24035;48.900;9.188;2023-03-24T03:54:10;2.53;;;0.90;;
38238;SDS011;24035;48.900;9.188;2023-03-24T03:56:37;2.60;;;0.98;;
38238;SDS011;24035;48.900;9.188;2023-03-24T03:59:05;2.65;;;0.82;;
38238;SDS011;24035;48.900;9.188;2023-03-24T04:01:33;2.35;;;0.80;;
38238;SDS011;24035;48.900;9.188;2023-03-24T04:04:09;2.97;;;0.80;;
38238;SDS011;24035;48.900;9.188;2023-03-24T04:09:38;2.33;;;0.60;;
38238;SDS011;24035;48.900;9.188;2023-03-24T04:15:31;2.42;;;0.70;;
38238;SDS011;24035;48.900;9.188;2023-03-24T04:18:10;1.38;;;0.57;;
38238;SDS011;24035;48.900;9.188;2023-03-24T04:21:13;3.45;;;1.10;;
38238;SDS011;24035;48.900;9.188;2023-03-24T04:26:40;2.45;;;0.70;;
38238;SDS011;24035;48.900;9.188;2023-03-24T04:29:23;2.17;;;0.80;;
38238;SDS011;24035;48.900;9.188;2023-03-24T04:32:03;1.77;;;0.55;;
38238;SDS011;24035;48.900;9.188;2023-03-24T04:34:39;2.55;;;0.80;;
38238;SDS011;24035;48.900;9.188;2023-03-24T04:37:13;2.13;;;0.73;;
38238;SDS011;24035;48.900;9.188;2023-03-24T04:40:03;2.55;;;0.80;;
38238;SDS011;24035;48.900;9.188;2023-03-24T04:42:38;2.63;;;0.82;;
38238;SDS011;24035;48.900;9.188;2023-03-24T04:45:09;3.38;;;1.40;;
38238;SDS011;24035;48.900;9.188;2023-03-24T04:47:39;3.05;;;0.93;;
38238;SDS011;24035;48.900;9.188;2023-03-24T04:50:39;3.38;;;0.90;;
38238;SDS011;24035;48.900;9.188;2023-03-24T04:53:04;2.08;;;0.68;;
38238;SDS011;24035;48.900;9.188;2023-03-24T04:58:16;2.38;;;0.68;;
38238;SDS011;24035;48.900;9.188;2023-03-24T05:00:43;2.10;;;0.70;;
38238;SDS011;24035;48.900;9.188;2023-03-24T05:03:09;1.30;;;0.60;;
38238;SDS011;24035;48.900;9.188;2023-03-24T05:05:39;2.22;;;0.80;;
38238;SDS011;24035;48.900;9.188;2023-03-24T05:08:07;2.42;;;0.68;;
38238;SDS011;24035;48.900;9.188;2023-03-24T05:10:34;1.52;;;0.60;;
38238;SDS011;24035;48.900;9.188;2023-03-24T05:13:00;2.42;;;0.80;;
38238;SDS011;24035;48.900;9.188;2023-03-24T05:15:26;2.47;;;0.70;;
38238;SDS011;24035;48.900;9.188;2023-03-24T05:17:52;2.40;;;0.80;;
38238;SDS011;24035;48.900;9.188;2023-03-24T05:20:21;4.40;;;1.23;;
38238;SDS011;24035;48.900;9.188;2023-03-24T05:22:47;3.28;;;0.80;;
38238;SDS011;24035;48.900;9.188;2023-03-24T05:25:14;3.10;;;0.93;;
38238;SDS011;24035;48.900;9.188;2023-03-24T05:27:40;2.90;;;1.05;;
38238;SDS011;24035;48.900;9.188;2023-03-24T05:30:06;2.35;;;1.02;;
38238;SDS011;24035;48.900;9.188;2023-03-24T05:32:32;1.95;;;0.80;;
38238;SDS011;24035;48.900;9.188;2023-03-24T05:34:58;3.42;;;0.90;;
38238;SDS011;24035;48.900;9.188;2023-03-24T05:37:24;2.65;;;1.00;;
38238;SDS011;24035;48.900;9.188;2023-03-24T05:39:49;3.45;;;0.93;;
38238;SDS011;24035;48.900;9.188;2023-03-24T05:42:15;2.85;;;0.82;;
38238;SDS011;24035;48.900;9.188;2023-03-24T05:44:41;3.45;;;0.98;;
38238;SDS011;24035;48.900;9.188;2023-03-24T05:47:07;2.83;;;0.90;;
38238;SDS011;24035;48.900;9.188;2023-03-24T05:49:33;4.28;;;1.23;;
38238;SDS011;24035;48.900;9.188;2023-03-24T05:51:59;4.03;;;1.27;;
38238;SDS011;24035;48.900;9.188;2023-03-24T05:54:25;3.85;;;0.90;;
38238;SDS011;24035;48.900;9.188;2023-03-24T05:56:55;3.50;;;1.20;;
38238;SDS011;24035;48.900;9.188;2023-03-24T05:59:20;1.90;;;0.70;;
38238;SDS011;24035;48.900;9.188;2023-03-24T06:01:46;3.22;;;0.93;;
38238;SDS011;24035;48.900;9.188;2023-03-24T06:04:12;2.83;;;1.00;;
38238;SDS011;24035;48.900;9.188;2023-03-24T06:06:38;5.47;;;1.50;;
38238;SDS011;24035;48.900;9.188;2023-03-24T06:09:05;3.92;;;1.20;;
38238;SDS011;24035;48.900;9.188;2023-03-24T06:11:30;3.92;;;1.25;;
38238;SDS011;24035;48.900;9.188;2023-03-24T06:13:56;2.65;;;1.00;;
38238;SDS011;24035;48.900;9.188;2023-03-24T06:16:28;3.10;;;1.02;;
38238;SDS011;24035;48.900;9.188;2023-03-24T06:18:54;2.25;;;1.05;;
38238;SDS011;24035;48.900;9.188;2023-03-24T06:21:20;2.63;;;1.00;;
38238;SDS011;24035;48.900;9.188;2023-03-24T06:23:46;4.65;;;1.13;;
38238;SDS011;24035;48.900;9.188;2023-03-24T06:26:12;3.47;;;1.23;;
38238;SDS011;24035;48.900;9.188;2023-03-24T06:28:39;3.85;;;1.20;;
38238;SDS011;24035;48.900;9.188;2023-03-24T06:31:07;3.20;;;1.27;;
38238;SDS011;24035;48.900;9.188;2023-03-24T06:33:44;2.90;;;1.27;;
38238;SDS011;24035;48.900;9.188;2023-03-24T06:36:11;3.88;;;1.27;;
38238;SDS011;24035;48.900;9.188;2023-03-24T06:38:38;3.50;;;1.20;;
38238;SDS011;24035;48.900;9.188;2023-03-24T06:41:04;3.83;;;1.58;;
38238;SDS011;24035;48.900;9.188;2023-03-24T06:43:31;4.20;;;1.40;;
38238;SDS011;24035;48.900;9.188;2023-03-24T06:45:57;4.35;;;1.42;;
38238;SDS011;24035;48.900;9.188;2023-03-24T06:48:24;3.50;;;1.20;;
38238;SDS011;24035;48.900;9.188;2023-03-24T06:50:53;3.47;;;1.02;;
38238;SDS011;24035;48.900;9.188;2023-03-24T06:53:20;2.60;;;1.10;;
38238;SDS011;24035;48.900;9.188;2023-03-24T06:55:47;2.72;;;1.20;;
38238;SDS011;24035;48.900;9.188;2023-03-24T06:58:13;3.83;;;1.33;;
38238;SDS011;24035;48.900;9.188;2023-03-24T07:00:40;3.63;;;1.30;;
38238;SDS011;24035;48.900;9.188;2023-03-24T07:03:06;2.63;;;1.02;;
38238;SDS011;24035;48.900;9.188;2023-03-24T07:05:32;4.47;;;1.40;;
38238;SDS011;24035;48.900;9.188;2023-03-24T07:08:03;2.63;;;1.00;;
38238;SDS011;24035;48.900;9.188;2023-03-24T07:10:29;2.42;;;1.13;;
38238;SDS011;24035;48.900;9.188;2023-03-24T07:12:55;2.85;;;1.05;;
38238;SDS011;24035;48.900;9.188;2023-03-24T07:15:21;3.13;;;1.20;;
38238;SDS011;24035;48.900;9.188;2023-03-24T07:17:47;7.18;;;1.42;;
38238;SDS011;24035;48.900;9.188;2023-03-24T07:20:13;3.40;;;1.00;;
38238;SDS011;24035;48.900;9.188;2023-03-24T07:22:40;4.03;;;1.10;;
38238;SDS011;24035;48.900;9.188;2023-03-24T07:25:06;3.50;;;1.15;;
38238;SDS011;24035;48.900;9.188;2023-03-24T07:27:32;3.65;;;1.00;;
38238;SDS011;24035;48.900;9.188;2023-03-24T07:29:59;2.88;;;1.02;;
38238;SDS011;24035;48.900;9.188;2023-03-24T07:32:25;3.85;;;1.20;;
38238;SDS011;24035;48.900;9.188;2023-03-24T07:34:53;3.15;;;1.40;;
38238;SDS011;24035;48.900;9.188;2023-03-24T07:37:19;2.42;;;0.90;;
38238;SDS011;24035;48.900;9.188;2023-03-24T07:39:45;3.17;;;1.13;;
38238;SDS011;24035;48.900;9.188;2023-03-24T07:42:12;4.30;;;1.20;;
38238;SDS011;24035;48.900;9.188;2023-03-24T07:44:37;3.65;;;0.85;;
38238;SDS011;24035;48.900;9.188;2023-03-24T07:47:03;3.17;;;0.80;;
38238;SDS011;24035;48.900;9.188;2023-03-24T07:49:29;2.42;;;0.93;;
38238;SDS011;24035;48.900;9.188;2023-03-24T07:51:55;3.15;;;1.15;;
38238;SDS011;24035;48.900;9.188;2023-03-24T07:54:22;2.15;;;0.80;;
38238;SDS011;24035;48.900;9.188;2023-03-24T07:56:49;2.53;;;0.98;;
38238;SDS011;24035;48.900;9.188;2023-03-24T07:59:15;3.28;;;1.48;;
38238;SDS011;24035;48.900;9.188;2023-03-24T08:01:41;2.33;;;0.80;;
38238;SDS011;24035;48.900;9.188;2023-03-24T08:04:08;2.90;;;1.15;;
38238;SDS011;24035;48.900;9.188;2023-03-24T08:06:37;2.70;;;1.02;;
38238;SDS011;24035;48.900;9.188;2023-03-24T08:09:02;2.22;;;1.00;;
38238;SDS011;24035;48.900;9.188;2023-03-24T08:11:29;2.67;;;0.98;;
38238;SDS011;24035;48.900;9.188;2023-03-24T08:13:54;2.33;;;0.90;;
38238;SDS011;24035;48.900;9.188;2023-03-24T08:16:22;1.83;;;0.75;;
38238;SDS011;24035;48.900;9.188;2023-03-24T08:18:49;2.58;;;0.73;;
38238;SDS011;24035;48.900;9.188;2023-03-24T08:21:14;3.38;;;0.90;;
38238;SDS011;24035;48.900;9.188;2023-03-24T08:23:40;1.90;;;0.77;;
38238;SDS011;24035;48.900;9.188;2023-03-24T08:26:06;2.35;;;1.05;;
38238;SDS011;24035;48.900;9.188;2023-03-24T08:28:35;2.40;;;1.08;;
38238;SDS011;24035;48.900;9.188;2023-03-24T08:31:02;2.72;;;0.90;;
38238;SDS011;24035;48.900;9.188;2023-03-24T08:33:28;1.75;;;0.82;;
38238;SDS011;24035;48.900;9.188;2023-03-24T08:35:53;3.60;;;0.95;;
38238;SDS011;24035;48.900;9.188;2023-03-24T08:38:22;3.47;;;1.20;;
38238;SDS011;24035;48.900;9.188;2023-03-24T08:40:58;2.80;;;1.13;;
38238;SDS011;24035;48.900;9.188;2023-03-24T08:43:26;2.55;;;0.82;;
38238;SDS011;24035;48.900;9.188;2023-03-24T08:45:54;2.95;;;0.90;;
38238;SDS011;24035;48.900;9.188;2023-03-24T08:48:20;2.55;;;0.85;;
38238;SDS011;24035;48.900;9.188;2023-03-24T08:50:47;2.83;;;1.02;;
38238;SDS011;24035;48.900;9.188;2023-03-24T08:53:13;3.42;;;1.25;;
38238;SDS011;24035;48.900;9.188;2023-03-24T08:55:39;5.32;;;0.95;;
38238;SDS011;24035;48.900;9.188;2023-03-24T08:58:07;2.17;;;0.80;;
38238;SDS011;24035;48.900;9.188;2023-03-24T09:00:38;2.90;;;1.00;;
38238;SDS011;24035;48.900;9.188;2023-03-24T09:03:05;4.18;;;1.20;;
38238;SDS011;24035;48.900;9.188;2023-03-24T09:05:30;3.17;;;1.05;;
38238;SDS011;24035;48.900;9.188;2023-03-24T09:07:56;1.73;;;0.70;;
38238;SDS011;24035;48.900;9.188;2023-03-24T09:10:24;1.88;;;0.60;;
38238;SDS011;24035;48.900;9.188;2023-03-24T09:12:50;3.80;;;1.10;;
38238;SDS011;24035;48.900;9.188;2023-03-24T09:15:16;2.67;;;0.90;;
38238;SDS011;24035;48.900;9.188;2023-03-24T09:17:42;2.13;;;0.68;;
38238;SDS011;24035;48.900;9.188;2023-03-24T09:20:09;6.72;;;0.80;;
38238;SDS011;24035;48.900;9.188;2023-03-24T09:22:38;2.38;;;0.60;;
38238;SDS011;24035;48.900;9.188;2023-03-24T09:25:05;2.17;;;0.68;;
38238;SDS011;24035;48.900;9.188;2023-03-24T09:27:32;2.25;;;0.82;;
38238;SDS011;24035;48.900;9.188;2023-03-24T09:29:58;2.22;;;1.00;;
38238;SDS011;24035;48.900;9.188;2023-03-24T09:32:23;2.03;;;0.75;;
38238;SDS011;24035;48.900;9.188;2023-03-24T09:34:49;2.03;;;0.63;;
38238;SDS011;24035;48.900;9.188;2023-03-24T09:37:15;2.53;;;0.73;;
38238;SDS011;24035;48.900;9.188;2023-03-24T09:39:40;1.73;;;0.60;;
38238;SDS011;24035;48.900;9.188;2023-03-24T09:42:06;1.80;;;0.70;;
38238;SDS011;24035;48.900;9.188;2023-03-24T09:44:42;2.97;;;0.82;;
38238;SDS011;24035;48.900;9.188;2023-03-24T09:47:29;1.35;;;0.47;;
38238;SDS011;24035;48.900;9.188;2023-03-24T09:49:59;2.78;;;0.70;;
38238;SDS011;24035;48.900;9.188;2023-03-24T09:52:31;3.53;;;0.85;;
38238;SDS011;24035;48.900;9.188;2023-03-24T09:55:03;2.10;;;0.80;;
38238;SDS011;24035;48.900;9.188;2023-03-24T09:57:35;1.63;;;0.60;;
38238;SDS011;24035;48.900;9.188;2023-03-24T10:02:52;3.60;;;1.00;;
38238;SDS011;24035;48.900;9.188;2023-03-24T10:07:59;4.38;;;0.70;;
38238;SDS011;24035;48.900;9.188;2023-03-24T10:16:32;3.15;;;0.57;;
38238;SDS011;24035;48.900;9.188;2023-03-24T10:21:51;3.88;;;0.75;;
38238;SDS011;24035;48.900;9.188;2023-03-24T10:24:30;2.20;;;0.43;;
38238;SDS011;24035;48.900;9.188;2023-03-24T10:27:45;1.73;;;0.70;;
38238;SDS011;24035;48.900;9.188;2023-03-24T10:30:00;1.40;;;0.50;;
38238;SDS011;24035;48.900;9.188;2023-03-24T10:32:36;2.40;;;0.68;;
38238;SDS011;24035;48.900;9.188;2023-03-24T10:35:02;1.20;;;0.55;;
38238;SDS011;24035;48.900;9.188;2023-03-24T10:37:34;1.75;;;0.60;;
38238;SDS011;24035;48.900;9.188;2023-03-24T10:40:01;2.53;;;0.73;;
38238;SDS011;24035;48.900;9.188;2023-03-24T10:42:32;2.72;;;0.70;;
38238;SDS011;24035;48.900;9.188;2023-03-24T10:44:59;1.08;;;0.50;;
38238;SDS011;24035;48.900;9.188;2023-03-24T10:47:27;2.63;;;0.68;;
38238;SDS011;24035;48.900;9.188;2023-03-24T10:49:59;1.48;;;0.60;;
38238;SDS011;24035;48.900;9.188;2023-03-24T10:52:26;1.55;;;0.50;;
38238;SDS011;24035;48.900;9.188;2023-03-24T10:54:57;2.10;;;0.70;;
38238;SDS011;24035;48.900;9.188;2023-03-24T10:57:27;1.40;;;0.40;;
38238;SDS011;24035;48.900;9.188;2023-03-24T10:59:59;1.25;;;0.50;;
38238;SDS011;24035;48.900;9.188;2023-03-24T11:02:41;1.20;;;0.52;;
38238;SDS011;24035;48.900;9.188;2023-03-24T11:07:41;4.03;;;0.70;;
38238;SDS011;24035;48.900;9.188;2023-03-24T11:15:20;1.90;;;0.50;;
38238;SDS011;24035;48.900;9.188;2023-03-24T11:18:32;1.17;;;0.50;;
38238;SDS011;24035;48.900;9.188;2023-03-24T11:20:36;0.63;;;0.30;;
38238;SDS011;24035;48.900;9.188;2023-03-24T11:25:36;1.35;;;0.43;;
38238;SDS011;24035;48.900;9.188;2023-03-24T11:28:06;1.88;;;0.35;;
38238;SDS011;24035;48.900;9.188;2023-03-24T11:30:45;1.33;;;0.50;;
38238;SDS011;24035;48.900;9.188;2023-03-24T11:34:01;1.63;;;0.52;;
38238;SDS011;24035;48.900;9.188;2023-03-24T11:41:35;1.13;;;0.43;;
38238;SDS011;24035;48.900;9.188;2023-03-24T11:44:23;2.13;;;0.50;;
38238;SDS011;24035;48.900;9.188;2023-03-24T11:46:54;3.08;;;0.50;;
38238;SDS011;24035;48.900;9.188;2023-03-24T11:49:30;1.15;;;0.22;;
38238;SDS011;24035;48.900;9.188;2023-03-24T11:52:01;1.17;;;0.43;;
38238;SDS011;24035;48.900;9.188;2023-03-24T11:54:30;2.03;;;0.68;;
38238;SDS011;24035;48.900;9.188;2023-03-24T11:57:01;1.17;;;0.43;;
38238;SDS011;24035;48.900;9.188;2023-03-24T12:02:24;1.60;;;0.40;;
38238;SDS011;24035;48.900;9.188;2023-03-24T12:10:55;0.75;;;0.40;;
38238;SDS011;24035;48.900;9.188;2023-03-24T12:13:35;0.50;;;0.20;;
38238;SDS011;24035;48.900;9.188;2023-03-24T12:16:27;0.98;;;0.38;;
38238;SDS011;24035;48.900;9.188;2023-03-24T12:22:31;1.03;;;0.30;;
38238;SDS011;24035;48.900;9.188;2023-03-24T12:33:21;1.75;;;0.68;;
38238;SDS011;24035;48.900;9.188;2023-03-24T12:43:57;1.05;;;0.40;;
38238;SDS011;24035;48.900;9.188;2023-03-24T12:57:07;0.80;;;0.30;;
38238;SDS011;24035;48.900;9.188;2023-03-24T13:00:00;1.42;;;0.40;;
38238;SDS011;24035;48.900;9.188;2023-03-24T13:02:40;0.65;;;0.22;;
38238;SDS011;24035;48.900;9.188;2023-03-24T13:05:16;0.45;;;0.20;;
38238;SDS011;24035;48.900;9.188;2023-03-24T13:07:45;0.85;;;0.30;;
38238;SDS011;24035;48.900;9.188;2023-03-24T13:10:21;1.33;;;0.30;;
38238;SDS011;24035;48.900;9.188;2023-03-24T13:12:55;0.20;;;0.10;;
38238;SDS011;24035;48.900;9.188;2023-03-24T13:18:13;0.70;;;0.20;;
38238;SDS011;24035;48.900;9.188;2023-03-24T13:28:54;1.60;;;0.40;;
38238;SDS011;24035;48.900;9.188;2023-03-24T13:31:30;1.90;;;0.17;;
38238;SDS011;24035;48.900;9.188;2023-03-24T13:34:01;1.48;;;0.52;;
38238;SDS011;24035;48.900;9.188;2023-03-24T13:36:33;2.13;;;0.30;;
38238;SDS011;24035;48.900;9.188;2023-03-24T13:39:10;1.02;;;0.35;;
38238;SDS011;24035;48.900;9.188;2023-03-24T13:41:49;3.03;;;0.60;;
38238;SDS011;24035;48.900;9.188;2023-03-24T13:44:21;1.55;;;0.35;;
38238;SDS011;24035;48.900;9.188;2023-03-24T13:49:29;1.00;;;0.20;;
38238;SDS011;24035;48.900;9.188;2023-03-24T13:51:55;1.38;;;0.28;;
38238;SDS011;24035;48.900;9.188;2023-03-24T13:54:23;1.27;;;0.38;;
38238;SDS011;24035;48.900;9.188;2023-03-24T13:56:59;2.83;;;0.40;;
38238;SDS011;24035;48.900;9.188;2023-03-24T14:02:43;1.58;;;0.20;;
38238;SDS011;24035;48.900;9.188;2023-03-24T14:05:39;1.50;;;0.30;;
38238;SDS011;24035;48.900;9.188;2023-03-24T14:08:32;4.13;;;0.70;;
38238;SDS011;24035;48.900;9.188;2023-03-24T14:11:03;0.65;;;0.20;;
38238;SDS011;24035;48.900;9.188;2023-03-24T14:13:33;0.98;;;0.35;;
38238;SDS011;24035;48.900;9.188;2023-03-24T14:16:00;1.50;;;0.55;;
38238;SDS011;24035;48.900;9.188;2023-03-24T14:18:51;0.88;;;0.32;;
38238;SDS011;24035;48.900;9.188;2023-03-24T14:24:33;0.55;;;0.20;;
38238;SDS011;24035;48.900;9.188;2023-03-24T14:27:04;1.35;;;0.40;;
38238;SDS011;24035;48.900;9.188;2023-03-24T14:37:59;1.13;;;0.32;;
38238;SDS011;24035;48.900;9.188;2023-03-24T14:40:35;1.65;;;0.52;;
38238;SDS011;24035;48.900;9.188;2023-03-24T14:48:24;1.27;;;0.35;;
38238;SDS011;24035;48.900;9.188;2023-03-24T14:51:10;3.95;;;0.57;;
38238;SDS011;24035;48.900;9.188;2023-03-24T14:54:00;2.40;;;1.10;;
38238;SDS011;24035;48.900;9.188;2023-03-24T14:56:30;1.45;;;0.55;;
38238;SDS011;24035;48.900;9.188;2023-03-24T14:59:01;3.90;;;0.40;;
38238;SDS011;24035;48.900;9.188;2023-03-24T15:01:33;1.15;;;0.50;;
38238;SDS011;24035;48.900;9.188;2023-03-24T15:04:08;3.95;;;0.63;;
38238;SDS011;24035;48.900;9.188;2023-03-24T15:06:42;1.20;;;0.30;;
38238;SDS011;24035;48.900;9.188;2023-03-24T15:09:13;3.00;;;0.47;;
38238;SDS011;24035;48.900;9.188;2023-03-24T15:11:41;1.90;;;0.30;;
38238;SDS011;24035;48.900;9.188;2023-03-24T15:14:17;1.85;;;0.60;;
38238;SDS011;24035;48.900;9.188;2023-03-24T15:16:53;0.68;;;0.30;;
38238;SDS011;24035;48.900;9.188;2023-03-24T15:19:30;2.38;;;0.43;;
38238;SDS011;24035;48.900;9.188;2023-03-24T15:22:03;2.95;;;0.57;;
38238;SDS011;24035;48.900;9.188;2023-03-24T15:24:35;1.90;;;0.77;;
38238;SDS011;24035;48.900;9.188;2023-03-24T15:29:40;1.92;;;0.57;;
38238;SDS011;24035;48.900;9.188;2023-03-24T15:32:20;0.82;;;0.30;;
38238;SDS011;24035;48.900;9.188;2023-03-24T15:34:54;2.28;;;0.40;;
38238;SDS011;24035;48.900;9.188;2023-03-24T15:37:33;0.98;;;0.15;;
38238;SDS011;24035;48.900;9.188;2023-03-24T15:40:01;0.68;;;0.30;;
38238;SDS011;24035;48.900;9.188;2023-03-24T15:42:29;1.60;;;0.38;;
38238;SDS011;24035;48.900;9.188;2023-03-24T15:44:55;1.63;;;0.40;;
38238;SDS011;24035;48.900;9.188;2023-03-24T15:47:36;1.15;;;0.30;;
38238;SDS011;24035;48.900;9.188;2023-03-24T15:50:04;1.30;;;0.30;;
38238;SDS011;24035;48.900;9.188;2023-03-24T15:57:39;1.67;;;0.35;;
38238;SDS011;24035;48.900;9.188;2023-03-24T16:00:13;1.17;;;0.40;;
38238;SDS011;24035;48.900;9.188;2023-03-24T16:02:51;1.20;;;0.32;;
38238;SDS011;24035;48.900;9.188;2023-03-24T16:07:54;1.08;;;0.38;;
38238;SDS011;24035;48.900;9.188;2023-03-24T16:10:30;1.45;;;0.50;;
38238;SDS011;24035;48.900;9.188;2023-03-24T16:15:42;3.58;;;1.52;;
38238;SDS011;24035;48.900;9.188;2023-03-24T16:18:17;3.03;;;0.80;;
38238;SDS011;24035;48.900;9.188;2023-03-24T16:20:46;1.20;;;0.50;;
38238;SDS011;24035;48.900;9.188;2023-03-24T16:23:12;2.28;;;0.47;;
38238;SDS011;24035;48.900;9.188;2023-03-24T16:25:38;1.50;;;0.38;;
38238;SDS011;24035;48.900;9.188;2023-03-24T16:28:04;1.27;;;0.47;;
38238;SDS011;24035;48.900;9.188;2023-03-24T16:30:33;1.20;;;0.30;;
38238;SDS011;24035;48.900;9.188;2023-03-24T16:33:04;1.55;;;0.40;;
38238;SDS011;24035;48.900;9.188;2023-03-24T16:35:31;1.58;;;0.60;;
38238;SDS011;24035;48.900;9.188;2023-03-24T16:37:57;3.03;;;1.35;;
38238;SDS011;24035;48.900;9.188;2023-03-24T16:40:43;1.05;;;0.30;;
38238;SDS011;24035;48.900;9.188;2023-03-24T16:43:16;3.25;;;0.50;;
38238;SDS011;24035;48.900;9.188;2023-03-24T16:45:44;1.13;;;0.30;;
38238;SDS011;24035;48.900;9.188;2023-03-24T16:48:10;1.48;;;0.38;;
38238;SDS011;24035;48.900;9.188;2023-03-24T16:50:46;1.88;;;0.52;;
38238;SDS011;24035;48.900;9.188;2023-03-24T16:53:15;2.35;;;0.73;;
38238;SDS011;24035;48.900;9.188;2023-03-24T16:55:45;1.92;;;0.60;;
38238;SDS011;24035;48.900;9.188;2023-03-24T16:58:12;1.50;;;0.50;;
38238;SDS011;24035;48.900;9.188;2023-03-24T17:00:39;1.15;;;0.30;;
38238;SDS011;24035;48.900;9.188;2023-03-24T17:03:08;0.68;;;0.20;;
38238;SDS011;24035;48.900;9.188;2023-03-24T17:05:44;1.58;;;0.45;;
38238;SDS011;24035;48.900;9.188;2023-03-24T17:08:12;1.75;;;0.32;;
38238;SDS011;24035;48.900;9.188;2023-03-24T17:10:39;0.70;;;0.28;;
38238;SDS011;24035;48.900;9.188;2023-03-24T17:13:08;1.42;;;0.50;;
38238;SDS011;24035;48.900;9.188;2023-03-24T17:15:40;1.13;;;0.40;;
38238;SDS011;24035;48.900;9.188;2023-03-24T17:18:06;1.45;;;0.40;;
38238;SDS011;24035;48.900;9.188;2023-03-24T17:20:32;2.25;;;0.70;;
38238;SDS011;24035;48.900;9.188;2023-03-24T17:22:59;2.47;;;0.57;;
38238;SDS011;24035;48.900;9.188;2023-03-24T17:25:25;2.35;;;0.77;;
38238;SDS011;24035;48.900;9.188;2023-03-24T17:27:53;1.52;;;0.55;;
38238;SDS011;24035;48.900;9.188;2023-03-24T17:30:21;2.22;;;0.75;;
38238;SDS011;24035;48.900;9.188;2023-03-24T17:32:48;3.55;;;1.15;;
38238;SDS011;24035;48.900;9.188;2023-03-24T17:35:16;1.98;;;0.75;;
38238;SDS011;24035;48.900;9.188;2023-03-24T17:37:44;2.50;;;0.70;;
38238;SDS011;24035;48.900;9.188;2023-03-24T17:40:10;2.10;;;0.65;;
38238;SDS011;24035;48.900;9.188;2023-03-24T17:42:38;1.20;;;0.50;;
38238;SDS011;24035;48.900;9.188;2023-03-24T17:45:06;1.10;;;0.38;;
38238;SDS011;24035;48.900;9.188;2023-03-24T17:47:33;1.80;;;0.57;;
38238;SDS011;24035;48.900;9.188;2023-03-24T17:49:58;2.95;;;0.73;;
38238;SDS011;24035;48.900;9.188;2023-03-24T17:52:24;1.40;;;0.50;;
38238;SDS011;24035;48.900;9.188;2023-03-24T17:54:50;2.65;;;0.57;;